Time;durP1;ratioP1;P1;durP2;ratioP2;P2;SDS_P1;SDS_P2;PMS_P1;PMS_P2;Temp;Humidity;BMP_temperature;BMP_pressure;BME280_temperature;BME280_humidity;BME280_pressure;Samples;Min_cycle;Max_cycle;Signal;HPM_P1;HPM_P2
2023/06/20 00:00:50;;;;;;;;;1.00;1.00;;;;;;;;4969879;28;45515;-72
2023/06/20 00:03:16;;;;;;;;;0.00;0.00;;;;;;;;4976490;28;45452;-73
2023/06/20 00:05:41;;;;;;;;;0.00;0.00;;;;;;;;4964144;28;47155;-72
2023/06/20 00:08:06;;;;;;;;;0.00;0.00;;;;;;;;4973977;28;45502;-73
2023/06/20 00:10:31;;;;;;;;;0.00;0.00;;;;;;;;4962566;28;45458;-72
2023/06/20 00:12:57;;;;;;;;;1.00;0.67;;;;;;;;4969569;28;45509;-72
2023/06/20 00:15:25;;;;;;;;;1.00;0.00;;;;;;;;4969491;28;45648;-72
2023/06/20 00:17:50;;;;;;;;;0.00;0.00;;;;;;;;4962418;28;45465;-72
2023/06/20 00:20:16;;;;;;;;;0.00;0.00;;;;;;;;4972836;28;45477;-72
2023/06/20 00:22:41;;;;;;;;;0.00;0.00;;;;;;;;4962514;28;45586;-71
2023/06/20 00:25:06;;;;;;;;;0.00;0.00;;;;;;;;4977210;28;45395;-72
2023/06/20 00:27:31;;;;;;;;;1.00;1.00;;;;;;;;4977851;28;45441;-72
2023/06/20 00:29:57;;;;;;;;;0.00;0.00;;;;;;;;4977973;28;45398;-72
2023/06/20 00:32:22;;;;;;;;;1.33;1.00;;;;;;;;4974412;28;45370;-72
2023/06/20 00:34:47;;;;;;;;;0.33;0.33;;;;;;;;4965031;28;45337;-72
2023/06/20 00:37:12;;;;;;;;;0.67;0.00;;;;;;;;4967482;28;45294;-72
2023/06/20 00:39:38;;;;;;;;;0.33;0.33;;;;;;;;4972010;28;45381;-72
2023/06/20 00:42:04;;;;;;;;;2.00;1.00;;;;;;;;4965797;28;45429;-72
2023/06/20 00:44:29;;;;;;;;;0.00;0.00;;;;;;;;4977254;28;45975;-72
2023/06/20 00:46:54;;;;;;;;;0.67;0.67;;;;;;;;4969895;28;45401;-72
2023/06/20 00:49:20;;;;;;;;;1.00;1.00;;;;;;;;4968307;28;45396;-73
2023/06/20 00:51:45;;;;;;;;;1.00;1.00;;;;;;;;4976260;28;45730;-72
2023/06/20 00:54:10;;;;;;;;;0.00;0.00;;;;;;;;4976007;28;46870;-72
2023/06/20 00:56:36;;;;;;;;;2.00;0.00;;;;;;;;4987926;28;28577;-73
2023/06/20 00:59:03;;;;;;;;;0.00;0.00;;;;;;;;4982609;28;28661;-72
2023/06/20 01:01:31;;;;;;;;;0.33;0.33;;;;;;;;4979590;28;28456;-72
2023/06/20 01:03:56;;;;;;;;;0.00;0.00;;;;;;;;4989723;28;28602;-72
2023/06/20 01:06:24;;;;;;;;;0.00;0.00;;;;;;;;4972621;28;45556;-72
2023/06/20 01:08:50;;;;;;;;;2.00;0.00;;;;;;;;4970044;28;45410;-72
2023/06/20 01:11:24;;;;;;;;;1.00;1.00;;;;;;;;4968807;28;45319;-72
2023/06/20 01:14:01;;;;;;;;;0.33;0.33;;;;;;;;4961974;28;45573;-72
2023/06/20 01:16:34;;;;;;;;;1.00;1.00;;;;;;;;4961816;28;45475;-72
2023/06/20 01:18:59;;;;;;;;;0.00;0.00;;;;;;;;4975298;28;45408;-72
2023/06/20 01:21:39;;;;;;;;;0.00;0.00;;;;;;;;4964746;28;45418;-72
2023/06/20 01:24:04;;;;;;;;;1.00;1.00;;;;;;;;4972971;28;47595;-72
2023/06/20 01:26:33;;;;;;;;;0.33;0.00;;;;;;;;4961500;28;45388;-72
2023/06/20 01:29:02;;;;;;;;;0.67;0.67;;;;;;;;4968237;28;45673;-72
2023/06/20 01:31:27;;;;;;;;;2.67;1.67;;;;;;;;4967728;28;45417;-72
2023/06/20 01:33:56;;;;;;;;;0.67;0.67;;;;;;;;4960946;28;46106;-72
2023/06/20 01:36:23;;;;;;;;;0.00;0.00;;;;;;;;4960374;28;45503;-72
2023/06/20 01:38:51;;;;;;;;;2.00;1.00;;;;;;;;4976391;28;45425;-72
2023/06/20 01:41:20;;;;;;;;;1.00;1.00;;;;;;;;4999147;28;45541;-73
2023/06/20 01:43:46;;;;;;;;;0.67;0.67;;;;;;;;4993066;28;29313;-72
2023/06/20 01:46:12;;;;;;;;;0.67;0.67;;;;;;;;4992455;28;28456;-72
2023/06/20 01:48:40;;;;;;;;;1.67;1.67;;;;;;;;4992414;28;27912;-73
2023/06/20 01:51:05;;;;;;;;;0.67;0.67;;;;;;;;4991972;28;28417;-72
2023/06/20 01:53:31;;;;;;;;;4.67;2.00;;;;;;;;4992311;28;28421;-73
2023/06/20 01:55:57;;;;;;;;;1.00;1.00;;;;;;;;4992031;28;28581;-72
2023/06/20 01:58:23;;;;;;;;;0.67;0.67;;;;;;;;4992419;28;28837;-73
2023/06/20 02:00:49;;;;;;;;;2.00;0.33;;;;;;;;4991360;28;28519;-72
2023/06/20 02:03:16;;;;;;;;;1.75;1.75;;;;;;;;4992474;28;28511;-72
2023/06/20 02:05:42;;;;;;;;;1.00;1.00;;;;;;;;4983064;28;28505;-73
2023/06/20 02:08:08;;;;;;;;;1.67;1.67;;;;;;;;4972638;28;28501;-72
2023/06/20 02:10:34;;;;;;;;;1.00;1.00;;;;;;;;4962601;28;45354;-72
2023/06/20 02:13:00;;;;;;;;;3.00;1.33;;;;;;;;4956530;28;47085;-72
2023/06/20 02:15:26;;;;;;;;;0.67;0.67;;;;;;;;4957127;28;45366;-73
2023/06/20 02:17:52;;;;;;;;;2.33;1.00;;;;;;;;4955985;28;45495;-72
2023/06/20 02:20:18;;;;;;;;;1.25;1.00;;;;;;;;4956627;28;45422;-72
2023/06/20 02:22:45;;;;;;;;;1.00;1.00;;;;;;;;4955635;28;45950;-72
2023/06/20 02:25:12;;;;;;;;;2.00;1.00;;;;;;;;4956800;28;45433;-72
2023/06/20 02:27:39;;;;;;;;;2.00;2.00;;;;;;;;4957285;28;45351;-73
2023/06/20 02:30:06;;;;;;;;;1.00;1.00;;;;;;;;4957257;28;45389;-72
2023/06/20 02:32:31;;;;;;;;;2.33;1.67;;;;;;;;4956622;28;46306;-73
2023/06/20 02:34:57;;;;;;;;;2.00;2.00;;;;;;;;4956801;28;45449;-72
2023/06/20 02:37:22;;;;;;;;;3.25;2.00;;;;;;;;4957073;28;45534;-73
2023/06/20 02:39:48;;;;;;;;;2.00;2.00;;;;;;;;4956950;28;45540;-72
2023/06/20 02:42:13;;;;;;;;;3.75;1.25;;;;;;;;4963061;28;45474;-72
2023/06/20 02:44:39;;;;;;;;;3.00;2.00;;;;;;;;4976142;28;45443;-72
2023/06/20 02:47:22;;;;;;;;;2.00;2.00;;;;;;;;4958911;28;45519;-72
2023/06/20 02:49:50;;;;;;;;;2.33;2.33;;;;;;;;4976162;28;45409;-72
2023/06/20 02:52:18;;;;;;;;;2.00;2.00;;;;;;;;4976033;28;46351;-72
2023/06/20 02:54:59;;;;;;;;;3.00;3.00;;;;;;;;4976404;28;45369;-73
2023/06/20 02:57:26;;;;;;;;;3.00;3.00;;;;;;;;4974895;28;45482;-73
2023/06/20 03:00:09;;;;;;;;;2.25;1.75;;;;;;;;4976337;28;45433;-72
2023/06/20 03:02:37;;;;;;;;;6.00;3.00;;;;;;;;4975865;28;46424;-72
2023/06/20 03:05:05;;;;;;;;;2.00;2.00;;;;;;;;4976152;28;45301;-72
2023/06/20 03:07:33;;;;;;;;;3.50;1.75;;;;;;;;4975803;28;45282;-72
2023/06/20 03:10:00;;;;;;;;;2.33;1.67;;;;;;;;4975871;28;45342;-72
2023/06/20 03:12:25;;;;;;;;;1.67;1.33;;;;;;;;4975568;28;46522;-72
2023/06/20 03:14:50;;;;;;;;;3.00;3.00;;;;;;;;4979372;28;45369;-72
2023/06/20 03:17:16;;;;;;;;;3.67;2.00;;;;;;;;4975943;28;45402;-72
2023/06/20 03:19:41;;;;;;;;;2.67;2.00;;;;;;;;4975122;28;45649;-72
2023/06/20 03:22:06;;;;;;;;;2.67;2.67;;;;;;;;4975458;28;47015;-72
2023/06/20 03:24:31;;;;;;;;;2.00;2.00;;;;;;;;4975607;28;45373;-72
2023/06/20 03:26:56;;;;;;;;;3.00;2.00;;;;;;;;4976072;28;45327;-72
2023/06/20 03:29:22;;;;;;;;;3.67;2.00;;;;;;;;4973753;28;45401;-72
2023/06/20 03:31:47;;;;;;;;;2.00;2.00;;;;;;;;4975167;28;45542;-72
2023/06/20 03:34:12;;;;;;;;;2.00;2.00;;;;;;;;4975628;28;45409;-72
2023/06/20 03:36:38;;;;;;;;;5.33;3.00;;;;;;;;4966871;28;45390;-72
2023/06/20 03:39:03;;;;;;;;;2.33;1.67;;;;;;;;4956323;28;45321;-72
2023/06/20 03:41:28;;;;;;;;;2.00;2.00;;;;;;;;4955589;28;45988;-71
2023/06/20 03:43:54;;;;;;;;;2.00;2.00;;;;;;;;4974942;28;45450;-71
2023/06/20 03:46:19;;;;;;;;;2.00;2.00;;;;;;;;4976026;28;45410;-77
2023/06/20 03:48:44;;;;;;;;;4.00;3.00;;;;;;;;4975348;28;45321;-77
2023/06/20 03:51:09;;;;;;;;;3.67;3.67;;;;;;;;4975414;28;45460;-77
2023/06/20 03:53:34;;;;;;;;;2.33;2.33;;;;;;;;4975386;28;45374;-76
2023/06/20 03:56:02;;;;;;;;;4.00;4.00;;;;;;;;4975831;28;45487;-76
2023/06/20 03:58:27;;;;;;;;;4.67;2.33;;;;;;;;4975719;28;45503;-77
2023/06/20 04:00:52;;;;;;;;;2.33;2.33;;;;;;;;4975374;28;46006;-76
2023/06/20 04:03:18;;;;;;;;;2.00;2.00;;;;;;;;4975203;28;45480;-78
2023/06/20 04:05:43;;;;;;;;;4.00;3.00;;;;;;;;4975805;28;45330;-76
2023/06/20 04:08:08;;;;;;;;;2.00;2.00;;;;;;;;4975465;28;45652;-78
2023/06/20 04:10:34;;;;;;;;;3.00;3.00;;;;;;;;4975124;28;45870;-77
2023/06/20 04:12:59;;;;;;;;;3.00;3.00;;;;;;;;4975277;28;45372;-79
2023/06/20 04:15:24;;;;;;;;;3.00;2.00;;;;;;;;4975203;28;45456;-77
2023/06/20 04:17:49;;;;;;;;;2.00;2.00;;;;;;;;4974666;28;45357;-76
2023/06/20 04:20:15;;;;;;;;;1.67;1.67;;;;;;;;4975117;28;45546;-77
2023/06/20 04:22:46;;;;;;;;;2.00;2.00;;;;;;;;4974941;28;45440;-77
2023/06/20 04:25:14;;;;;;;;;3.00;3.00;;;;;;;;4975201;28;45357;-77
2023/06/20 04:27:40;;;;;;;;;2.33;2.33;;;;;;;;4975041;28;45345;-77
2023/06/20 04:30:05;;;;;;;;;2.75;2.00;;;;;;;;4974890;28;45919;-76
2023/06/20 04:32:31;;;;;;;;;3.33;2.33;;;;;;;;4975033;28;45415;-76
2023/06/20 04:34:56;;;;;;;;;3.33;3.33;;;;;;;;4975118;28;45437;-76
2023/06/20 04:37:21;;;;;;;;;5.00;3.00;;;;;;;;4975055;28;45329;-76
2023/06/20 04:39:46;;;;;;;;;3.00;2.00;;;;;;;;4974996;28;45611;-76
2023/06/20 04:42:11;;;;;;;;;4.33;4.33;;;;;;;;4977388;28;45449;-75
2023/06/20 04:44:37;;;;;;;;;4.33;3.00;;;;;;;;4978381;28;45381;-75
2023/06/20 04:47:02;;;;;;;;;1.33;1.33;;;;;;;;4978319;28;45204;-74
2023/06/20 04:49:28;;;;;;;;;3.00;2.00;;;;;;;;4975707;28;47501;-75
2023/06/20 04:51:53;;;;;;;;;3.33;3.33;;;;;;;;4976348;28;45544;-75
2023/06/20 04:54:19;;;;;;;;;3.00;3.00;;;;;;;;4976830;28;45396;-76
2023/06/20 04:56:46;;;;;;;;;2.33;2.33;;;;;;;;4978341;28;45452;-76
2023/06/20 04:59:11;;;;;;;;;3.00;3.00;;;;;;;;4977617;28;45435;-76
2023/06/20 05:01:37;;;;;;;;;2.33;2.33;;;;;;;;4977560;28;45383;-75
2023/06/20 05:04:05;;;;;;;;;3.00;3.00;;;;;;;;4985245;28;45361;-75
2023/06/20 05:06:31;;;;;;;;;3.33;3.33;;;;;;;;4978006;28;45425;-76
2023/06/20 05:08:56;;;;;;;;;5.00;2.00;;;;;;;;4977523;28;46306;-75
2023/06/20 05:11:21;;;;;;;;;3.33;3.33;;;;;;;;4976692;28;45925;-75
2023/06/20 05:13:46;;;;;;;;;3.00;3.00;;;;;;;;4976827;28;45413;-75
2023/06/20 05:16:11;;;;;;;;;3.00;3.00;;;;;;;;4978312;28;45374;-75
2023/06/20 05:18:37;;;;;;;;;6.00;5.00;;;;;;;;4977471;28;46452;-75
2023/06/20 05:21:02;;;;;;;;;2.67;2.67;;;;;;;;4977999;28;45443;-74
2023/06/20 05:23:27;;;;;;;;;2.00;2.00;;;;;;;;4978270;28;45453;-74
2023/06/20 05:25:53;;;;;;;;;2.00;2.00;;;;;;;;4977312;28;45353;-75
2023/06/20 05:28:18;;;;;;;;;4.00;4.00;;;;;;;;4976069;28;47561;-75
2023/06/20 05:30:43;;;;;;;;;2.00;2.00;;;;;;;;4977692;28;45440;-74
2023/06/20 05:33:08;;;;;;;;;1.33;1.33;;;;;;;;4977683;28;45321;-73
2023/06/20 05:35:34;;;;;;;;;2.00;2.00;;;;;;;;4979520;28;45207;-79
2023/06/20 05:37:59;;;;;;;;;3.75;3.75;;;;;;;;4977173;28;47357;-81
2023/06/20 05:40:25;;;;;;;;;6.00;3.00;;;;;;;;4978418;28;45437;-82
2023/06/20 05:42:50;;;;;;;;;3.33;3.00;;;;;;;;4979459;28;45317;-79
2023/06/20 05:45:15;;;;;;;;;4.00;4.00;;;;;;;;4980572;28;45262;-84
2023/06/20 05:47:40;;;;;;;;;2.00;2.00;;;;;;;;4980767;28;47262;-81
2023/06/20 05:50:06;;;;;;;;;3.00;3.00;;;;;;;;4981702;28;45376;-81
2023/06/20 05:52:31;;;;;;;;;5.00;5.00;;;;;;;;4978500;28;45266;-81
2023/06/20 05:54:57;;;;;;;;;3.50;3.50;;;;;;;;4979804;28;45385;-79
2023/06/20 05:57:22;;;;;;;;;3.00;3.00;;;;;;;;4977982;28;46038;-80
2023/06/20 05:59:47;;;;;;;;;7.00;5.25;;;;;;;;4982044;28;45401;-83
2023/06/20 06:02:13;;;;;;;;;3.50;3.00;;;;;;;;4983344;28;45312;-81
2023/06/20 06:04:38;;;;;;;;;7.00;4.33;;;;;;;;4982480;28;45242;-84
2023/06/20 06:07:07;;;;;;;;;5.67;4.33;;;;;;;;4979106;28;46303;-83
2023/06/20 06:09:32;;;;;;;;;4.25;4.25;;;;;;;;4977794;28;45291;-80
2023/06/20 06:11:58;;;;;;;;;3.00;3.00;;;;;;;;4976270;28;45303;-82
2023/06/20 06:14:23;;;;;;;;;7.75;6.25;;;;;;;;4977161;28;45321;-81
2023/06/20 06:16:49;;;;;;;;;3.75;3.75;;;;;;;;4977154;28;45516;-80
2023/06/20 06:19:14;;;;;;;;;4.67;4.00;;;;;;;;4977775;28;45531;-84
2023/06/20 06:21:39;;;;;;;;;6.00;5.00;;;;;;;;4978280;28;45360;-82
2023/06/20 06:24:06;;;;;;;;;6.00;5.00;;;;;;;;4978670;28;45423;-80
2023/06/20 06:26:31;;;;;;;;;4.00;4.00;;;;;;;;4978745;28;47055;-82
2023/06/20 06:28:56;;;;;;;;;4.75;4.75;;;;;;;;4977282;28;45433;-82
2023/06/20 06:31:24;;;;;;;;;5.00;5.00;;;;;;;;4977636;28;45389;-83
2023/06/20 06:33:50;;;;;;;;;4.00;4.00;;;;;;;;4977515;28;45400;-83
2023/06/20 06:36:16;;;;;;;;;6.33;5.00;;;;;;;;4975815;28;47490;-81
2023/06/20 06:38:41;;;;;;;;;6.00;6.00;;;;;;;;4977812;28;45571;-83
2023/06/20 06:41:06;;;;;;;;;6.00;4.67;;;;;;;;4976523;28;45417;-83
2023/06/20 06:43:32;;;;;;;;;6.75;6.75;;;;;;;;4976436;28;45391;-83
2023/06/20 06:45:57;;;;;;;;;3.33;3.33;;;;;;;;4976947;28;45437;-84
2023/06/20 06:48:22;;;;;;;;;5.00;5.00;;;;;;;;4977987;28;45425;-86
2023/06/20 06:50:48;;;;;;;;;5.25;3.50;;;;;;;;4977215;28;45365;-83
2023/06/20 06:53:13;;;;;;;;;4.00;4.00;;;;;;;;4987568;28;45366;-84
2023/06/20 06:55:44;;;;;;;;;6.00;5.33;;;;;;;;4977976;28;47266;-84
2023/06/20 06:58:09;;;;;;;;;6.00;5.00;;;;;;;;4978265;28;45342;-82
2023/06/20 07:00:35;;;;;;;;;5.67;4.00;;;;;;;;4978524;28;45417;-83
2023/06/20 07:03:00;;;;;;;;;6.25;5.25;;;;;;;;4978748;28;45310;-81
2023/06/20 07:05:26;;;;;;;;;7.00;6.00;;;;;;;;4964479;28;45500;-82
2023/06/20 07:07:51;;;;;;;;;7.00;7.00;;;;;;;;4975165;28;45460;-82
2023/06/20 07:10:17;;;;;;;;;5.50;5.25;;;;;;;;4976164;28;45326;-82
2023/06/20 07:12:42;;;;;;;;;7.25;5.75;;;;;;;;4976501;28;45355;-82
2023/06/20 07:15:07;;;;;;;;;5.00;5.00;;;;;;;;4983382;28;46245;-79
2023/06/20 07:17:33;;;;;;;;;7.50;5.75;;;;;;;;4970456;28;28858;-83
2023/06/20 07:19:59;;;;;;;;;7.00;7.00;;;;;;;;4989182;28;28463;-82
2023/06/20 07:22:24;;;;;;;;;4.33;3.33;;;;;;;;4992012;28;28519;-82
2023/06/20 07:24:49;;;;;;;;;7.25;6.50;;;;;;;;4992637;28;29095;-83
2023/06/20 07:27:14;;;;;;;;;7.25;7.00;;;;;;;;4991948;28;28533;-83
2023/06/20 07:29:40;;;;;;;;;5.00;5.00;;;;;;;;4992992;28;28456;-82
2023/06/20 07:32:05;;;;;;;;;7.25;5.50;;;;;;;;4992119;28;28521;-82
2023/06/20 07:34:30;;;;;;;;;6.00;6.00;;;;;;;;4992966;28;28495;-81
2023/06/20 07:36:56;;;;;;;;;9.25;9.00;;;;;;;;4991824;28;28397;-80
2023/06/20 07:39:21;;;;;;;;;8.25;7.00;;;;;;;;4991837;28;28477;-83
2023/06/20 07:41:46;;;;;;;;;10.25;6.50;;;;;;;;4991956;28;28408;-81
2023/06/20 07:44:11;;;;;;;;;8.50;6.25;;;;;;;;4993496;28;29828;-83
2023/06/20 07:46:39;;;;;;;;;7.00;7.00;;;;;;;;4993949;28;28480;-83
2023/06/20 07:49:04;;;;;;;;;6.50;6.25;;;;;;;;4994316;28;28568;-81
2023/06/20 07:51:33;;;;;;;;;9.00;7.75;;;;;;;;4993398;28;28603;-86
2023/06/20 07:53:58;;;;;;;;;9.00;8.00;;;;;;;;4993256;28;28432;-85
2023/06/20 07:56:23;;;;;;;;;7.25;7.25;;;;;;;;4992967;28;28410;-82
2023/06/20 07:58:48;;;;;;;;;5.25;5.00;;;;;;;;4991521;28;28469;-81
2023/06/20 08:01:13;;;;;;;;;9.00;8.00;;;;;;;;4992389;28;28326;-82
2023/06/20 08:03:39;;;;;;;;;9.75;6.50;;;;;;;;4992215;28;28518;-82
2023/06/20 08:06:04;;;;;;;;;7.75;6.00;;;;;;;;4991635;28;28381;-81
2023/06/20 08:08:29;;;;;;;;;9.00;9.00;;;;;;;;4991002;28;28477;-82
2023/06/20 08:10:54;;;;;;;;;8.50;7.50;;;;;;;;4992850;28;28314;-83
2023/06/20 08:13:19;;;;;;;;;6.25;6.25;;;;;;;;4992737;28;28472;-84
2023/06/20 08:15:45;;;;;;;;;4.25;4.25;;;;;;;;4992131;28;28559;-81
2023/06/20 08:18:10;;;;;;;;;8.75;6.75;;;;;;;;4994499;28;43013;-79
2023/06/20 08:20:35;;;;;;;;;8.25;7.25;;;;;;;;4996030;28;28389;-82
2023/06/20 08:23:00;;;;;;;;;7.25;7.25;;;;;;;;4994502;28;28377;-82
2023/06/20 08:25:26;;;;;;;;;8.75;8.75;;;;;;;;4993813;28;28359;-83
2023/06/20 08:27:51;;;;;;;;;7.50;7.00;;;;;;;;4993026;28;28520;-86
2023/06/20 08:30:16;;;;;;;;;9.50;7.00;;;;;;;;4995332;28;28422;-83
2023/06/20 08:32:42;;;;;;;;;13.25;9.50;;;;;;;;4994855;28;28341;-80
2023/06/20 08:35:09;;;;;;;;;12.00;10.75;;;;;;;;4994835;28;28329;-80
2023/06/20 08:37:35;;;;;;;;;9.25;9.25;;;;;;;;4994508;28;28450;-80
2023/06/20 08:40:00;;;;;;;;;9.75;8.25;;;;;;;;4994062;28;28325;-81
2023/06/20 08:42:28;;;;;;;;;10.25;8.25;;;;;;;;4994536;28;28348;-83
2023/06/20 08:44:56;;;;;;;;;8.00;7.25;;;;;;;;4995001;28;28245;-85
2023/06/20 08:47:21;;;;;;;;;8.75;8.75;;;;;;;;4994478;28;28550;-82
2023/06/20 08:49:47;;;;;;;;;8.25;7.25;;;;;;;;4994366;28;28414;-85
2023/06/20 08:52:12;;;;;;;;;9.00;9.00;;;;;;;;4993974;28;29141;-85
2023/06/20 08:54:40;;;;;;;;;8.25;6.75;;;;;;;;4993793;28;28333;-85
2023/06/20 08:57:06;;;;;;;;;7.00;7.00;;;;;;;;4994515;28;28519;-82
2023/06/20 08:59:31;;;;;;;;;7.00;7.00;;;;;;;;4994427;28;28428;-82
2023/06/20 09:01:56;;;;;;;;;8.00;8.00;;;;;;;;4994443;28;28503;-83
2023/06/20 09:04:22;;;;;;;;;6.00;6.00;;;;;;;;4995177;28;28376;-86
2023/06/20 09:06:50;;;;;;;;;7.75;7.75;;;;;;;;4995149;28;28551;-84
2023/06/20 09:09:16;;;;;;;;;11.75;8.50;;;;;;;;4999640;28;28431;-80
2023/06/20 09:11:48;;;;;;;;;6.50;6.50;;;;;;;;5001304;28;28440;-86
2023/06/20 09:14:13;;;;;;;;;10.50;8.25;;;;;;;;5002819;28;27967;-85
2023/06/20 09:16:40;;;;;;;;;8.00;8.00;;;;;;;;4996098;28;28299;-85
2023/06/20 09:19:05;;;;;;;;;11.50;9.75;;;;;;;;4977451;28;28271;-85
2023/06/20 09:21:35;;;;;;;;;10.50;8.00;;;;;;;;4993852;28;28411;-83
2023/06/20 09:24:02;;;;;;;;;8.00;6.75;;;;;;;;4994495;28;28512;-86
2023/06/20 09:26:28;;;;;;;;;8.75;8.75;;;;;;;;4995542;28;28459;-85
2023/06/20 09:29:03;;;;;;;;;7.75;7.75;;;;;;;;4994439;28;28457;-85
2023/06/20 09:31:38;;;;;;;;;8.25;8.25;;;;;;;;4994063;28;28484;-85
2023/06/20 09:34:03;;;;;;;;;10.50;9.50;;;;;;;;4995330;28;28462;-86
2023/06/20 09:36:28;;;;;;;;;7.25;7.25;;;;;;;;4994326;28;28364;-87
2023/06/20 09:38:56;;;;;;;;;8.25;8.25;;;;;;;;4991965;28;28490;-84
2023/06/20 09:41:21;;;;;;;;;6.50;6.50;;;;;;;;4993413;28;28493;-84
2023/06/20 09:43:46;;;;;;;;;11.75;9.75;;;;;;;;4992646;28;28579;-87
2023/06/20 09:46:12;;;;;;;;;9.50;9.00;;;;;;;;4992883;28;28546;-86
2023/06/20 09:48:38;;;;;;;;;8.00;8.00;;;;;;;;4992790;28;28413;-87
2023/06/20 09:51:05;;;;;;;;;8.50;6.50;;;;;;;;4992605;28;30101;-85
2023/06/20 09:54:01;;;;;;;;;9.00;8.50;;;;;;;;4993373;28;28540;-84
2023/06/20 09:56:28;;;;;;;;;6.50;6.50;;;;;;;;4981893;28;28484;-88
2023/06/20 09:58:57;;;;;;;;;8.25;7.75;;;;;;;;4993281;28;28459;-84
2023/06/20 10:01:24;;;;;;;;;7.00;7.00;;;;;;;;4992774;28;30061;-85
2023/06/20 10:03:51;;;;;;;;;10.50;8.50;;;;;;;;4992826;28;28332;-85
2023/06/20 10:06:16;;;;;;;;;6.25;5.50;;;;;;;;4993096;28;28432;-86
2023/06/20 10:08:41;;;;;;;;;7.75;6.50;;;;;;;;4992780;28;28388;-84
2023/06/20 10:11:07;;;;;;;;;7.00;7.00;;;;;;;;4992767;28;29145;-85
2023/06/20 10:13:33;;;;;;;;;8.50;7.75;;;;;;;;4992677;28;28611;-87
2023/06/20 10:15:59;;;;;;;;;6.50;6.00;;;;;;;;4992736;28;28379;-85
2023/06/20 10:18:27;;;;;;;;;8.00;7.00;;;;;;;;4991618;28;28456;-85
2023/06/20 10:20:53;;;;;;;;;6.50;5.75;;;;;;;;4993415;28;28504;-84
2023/06/20 10:23:20;;;;;;;;;4.50;4.50;;;;;;;;4991420;28;28523;-84
2023/06/20 10:25:52;;;;;;;;;5.50;5.50;;;;;;;;4988373;28;28433;-82
2023/06/20 10:28:20;;;;;;;;;6.50;6.50;;;;;;;;4979171;28;28476;-83
2023/06/20 10:30:45;;;;;;;;;6.75;6.25;;;;;;;;4989599;28;28507;-84
2023/06/20 10:33:11;;;;;;;;;7.00;7.00;;;;;;;;4989331;28;28464;-83
2023/06/20 10:35:49;;;;;;;;;7.00;7.00;;;;;;;;4979701;28;28575;-85
2023/06/20 10:38:14;;;;;;;;;5.00;5.00;;;;;;;;4993680;28;28379;-83
2023/06/20 10:40:40;;;;;;;;;5.25;5.25;;;;;;;;4975231;28;29977;-80
2023/06/20 10:43:08;;;;;;;;;6.25;5.50;;;;;;;;4989888;28;28413;-82
2023/06/20 10:45:34;;;;;;;;;3.00;3.00;;;;;;;;4992013;28;28452;-81
2023/06/20 10:48:03;;;;;;;;;4.00;4.00;;;;;;;;4980486;28;28346;-81
2023/06/20 10:50:28;;;;;;;;;8.00;8.00;;;;;;;;4985062;28;30992;-84
2023/06/20 10:52:54;;;;;;;;;4.25;4.25;;;;;;;;4976567;28;28479;-82
2023/06/20 10:55:23;;;;;;;;;4.75;4.75;;;;;;;;4990858;28;28450;-85
2023/06/20 10:57:49;;;;;;;;;4.50;4.50;;;;;;;;4982064;28;28578;-82
2023/06/20 11:00:18;;;;;;;;;4.00;4.00;;;;;;;;4984287;28;29351;-82
2023/06/20 11:02:48;;;;;;;;;3.00;3.00;;;;;;;;4975441;28;28537;-85
2023/06/20 11:05:13;;;;;;;;;4.50;4.50;;;;;;;;4975867;28;28504;-82
2023/06/20 11:07:51;;;;;;;;;3.75;3.75;;;;;;;;4991381;28;28524;-78
2023/06/20 11:10:16;;;;;;;;;4.00;4.00;;;;;;;;4979368;28;28489;-82
2023/06/20 11:12:42;;;;;;;;;3.00;3.00;;;;;;;;4987385;28;28428;-80
2023/06/20 11:15:27;;;;;;;;;7.00;5.00;;;;;;;;4973991;28;28599;-83
2023/06/20 11:17:52;;;;;;;;;4.25;4.25;;;;;;;;4990541;28;28088;-81
2023/06/20 11:20:19;;;;;;;;;4.75;3.00;;;;;;;;4992096;28;28594;-84
2023/06/20 11:22:46;;;;;;;;;2.25;2.25;;;;;;;;4974440;28;29085;-84
2023/06/20 11:25:11;;;;;;;;;2.25;2.25;;;;;;;;4984131;28;28483;-80
2023/06/20 11:27:37;;;;;;;;;2.50;2.50;;;;;;;;4991056;28;28362;-80
2023/06/20 11:30:03;;;;;;;;;4.00;3.00;;;;;;;;4980937;28;28981;-79
2023/06/20 11:32:28;;;;;;;;;2.00;2.00;;;;;;;;4985254;28;28459;-80
2023/06/20 11:34:54;;;;;;;;;4.00;3.00;;;;;;;;4973654;28;28416;-83
2023/06/20 11:37:20;;;;;;;;;3.25;2.75;;;;;;;;4986959;28;28465;-82
2023/06/20 11:39:46;;;;;;;;;3.25;3.25;;;;;;;;4981312;28;29475;-80
2023/06/20 11:42:17;;;;;;;;;5.25;5.00;;;;;;;;4981805;28;28577;-83
2023/06/20 11:44:43;;;;;;;;;5.75;5.00;;;;;;;;4988145;28;28427;-77
2023/06/20 11:47:09;;;;;;;;;3.75;3.75;;;;;;;;4988667;28;28625;-79
2023/06/20 11:49:35;;;;;;;;;3.00;3.00;;;;;;;;4988725;28;28412;-79
2023/06/20 11:52:00;;;;;;;;;3.50;3.50;;;;;;;;4991139;28;28554;-80
2023/06/20 11:54:25;;;;;;;;;3.75;2.75;;;;;;;;4986779;28;28498;-78
2023/06/20 11:56:51;;;;;;;;;5.00;4.00;;;;;;;;4992711;28;28552;-80
2023/06/20 11:59:25;;;;;;;;;5.00;4.00;;;;;;;;4992670;28;30102;-79
2023/06/20 12:01:50;;;;;;;;;5.25;5.25;;;;;;;;4985886;28;28518;-77
2023/06/20 12:04:19;;;;;;;;;4.50;4.25;;;;;;;;4983213;28;28405;-75
2023/06/20 12:06:47;;;;;;;;;6.75;6.00;;;;;;;;4993957;28;28439;-77
2023/06/20 12:09:13;;;;;;;;;3.75;3.25;;;;;;;;4982079;28;29110;-83
2023/06/20 12:11:52;;;;;;;;;4.25;4.25;;;;;;;;4984541;28;28531;-80
2023/06/20 12:14:17;;;;;;;;;5.50;5.50;;;;;;;;4996211;28;28471;-82
2023/06/20 12:16:43;;;;;;;;;4.75;4.75;;;;;;;;4989461;28;28490;-80
2023/06/20 12:19:08;;;;;;;;;4.25;3.75;;;;;;;;4997470;28;28499;-82
2023/06/20 12:21:33;;;;;;;;;6.00;6.00;;;;;;;;4997067;28;28294;-79
2023/06/20 12:24:00;;;;;;;;;6.75;6.75;;;;;;;;4986863;28;28577;-79
2023/06/20 12:26:25;;;;;;;;;8.00;6.00;;;;;;;;4990715;28;28439;-80
2023/06/20 12:28:50;;;;;;;;;5.00;5.00;;;;;;;;4976550;28;44834;-80
2023/06/20 12:31:15;;;;;;;;;4.75;4.75;;;;;;;;4975195;28;45390;-78
2023/06/20 12:33:40;;;;;;;;;5.50;5.50;;;;;;;;4969287;28;45515;-78
2023/06/20 12:36:06;;;;;;;;;7.25;5.75;;;;;;;;4981479;28;45639;-82
2023/06/20 12:38:31;;;;;;;;;6.00;5.50;;;;;;;;4966458;28;45440;-76
2023/06/20 12:40:57;;;;;;;;;7.75;6.25;;;;;;;;4975005;28;45443;-78
2023/06/20 12:43:22;;;;;;;;;8.00;7.00;;;;;;;;4981291;28;45493;-80
2023/06/20 12:45:48;;;;;;;;;6.00;6.00;;;;;;;;4996672;28;28504;-82
2023/06/20 12:48:13;;;;;;;;;5.25;5.25;;;;;;;;4995019;28;29153;-81
2023/06/20 12:50:38;;;;;;;;;5.75;5.75;;;;;;;;4996590;28;43010;-79
2023/06/20 12:53:03;;;;;;;;;6.00;6.00;;;;;;;;4997091;28;28396;-79
2023/06/20 12:55:31;;;;;;;;;5.50;5.50;;;;;;;;4995375;28;28646;-75
2023/06/20 12:57:57;;;;;;;;;7.75;5.00;;;;;;;;4997383;28;28991;-82
2023/06/20 13:00:22;;;;;;;;;6.50;5.25;;;;;;;;4996563;28;28400;-81
2023/06/20 13:02:48;;;;;;;;;6.25;5.25;;;;;;;;4995335;28;28413;-80
2023/06/20 13:05:13;;;;;;;;;5.25;5.25;;;;;;;;4986838;28;28401;-82
2023/06/20 13:07:40;;;;;;;;;6.25;6.25;;;;;;;;4988564;28;28593;-78
2023/06/20 13:10:06;;;;;;;;;5.75;5.75;;;;;;;;4993512;28;28476;-79
2023/06/20 13:12:32;;;;;;;;;4.75;4.75;;;;;;;;4993924;28;28392;-80
2023/06/20 13:14:58;;;;;;;;;7.00;5.75;;;;;;;;4994969;28;28350;-83
2023/06/20 13:17:23;;;;;;;;;6.00;5.00;;;;;;;;4978594;28;29819;-81
2023/06/20 13:19:48;;;;;;;;;5.75;5.75;;;;;;;;4995010;28;28460;-83
2023/06/20 13:22:13;;;;;;;;;7.25;5.50;;;;;;;;4995481;28;28463;-84
2023/06/20 13:24:42;;;;;;;;;5.25;5.25;;;;;;;;4995278;28;28601;-79
2023/06/20 13:27:08;;;;;;;;;7.75;6.00;;;;;;;;4993282;28;28461;-78
2023/06/20 13:29:33;;;;;;;;;6.75;6.75;;;;;;;;4992179;28;28461;-83
2023/06/20 13:31:59;;;;;;;;;4.75;4.75;;;;;;;;4993534;28;28311;-80
2023/06/20 13:34:24;;;;;;;;;5.75;5.75;;;;;;;;4994567;28;28394;-80
2023/06/20 13:36:50;;;;;;;;;5.00;5.00;;;;;;;;4993169;28;29563;-79
2023/06/20 13:39:15;;;;;;;;;6.00;6.00;;;;;;;;4993863;28;28474;-82
2023/06/20 13:41:40;;;;;;;;;4.75;3.50;;;;;;;;4992141;28;28464;-79
2023/06/20 13:44:05;;;;;;;;;4.75;4.75;;;;;;;;4993524;28;28525;-81
2023/06/20 13:46:30;;;;;;;;;5.00;5.00;;;;;;;;4993205;28;28590;-80
2023/06/20 13:48:56;;;;;;;;;5.00;4.00;;;;;;;;4993401;28;28408;-79
2023/06/20 13:51:21;;;;;;;;;4.00;4.00;;;;;;;;4993434;28;28404;-82
2023/06/20 13:53:46;;;;;;;;;3.75;3.75;;;;;;;;4991021;28;28504;-78
2023/06/20 13:56:12;;;;;;;;;5.00;5.00;;;;;;;;4992506;28;28479;-81
2023/06/20 13:58:37;;;;;;;;;6.00;6.00;;;;;;;;4994246;28;28608;-82
2023/06/20 14:01:05;;;;;;;;;7.25;5.50;;;;;;;;4995659;28;28479;-81
2023/06/20 14:03:30;;;;;;;;;6.00;4.25;;;;;;;;4993852;28;28460;-77
2023/06/20 14:05:56;;;;;;;;;6.00;6.00;;;;;;;;4993771;28;28429;-80
2023/06/20 14:08:22;;;;;;;;;5.00;5.00;;;;;;;;4991740;28;28478;-82
2023/06/20 14:10:47;;;;;;;;;4.25;3.25;;;;;;;;4992778;28;28583;-78
2023/06/20 14:13:12;;;;;;;;;4.00;3.00;;;;;;;;4991897;28;28515;-78
2023/06/20 14:15:37;;;;;;;;;3.00;1.75;;;;;;;;4992655;28;28598;-80
2023/06/20 14:18:03;;;;;;;;;3.00;3.00;;;;;;;;4987103;28;28486;-82
2023/06/20 14:20:28;;;;;;;;;3.25;3.25;;;;;;;;4978882;28;28689;-82
2023/06/20 14:22:54;;;;;;;;;4.25;4.25;;;;;;;;4988057;28;28532;-83
2023/06/20 14:25:19;;;;;;;;;3.00;3.00;;;;;;;;4992057;28;28392;-85
2023/06/20 14:27:44;;;;;;;;;3.25;3.25;;;;;;;;4990960;28;28364;-79
2023/06/20 14:30:10;;;;;;;;;3.00;3.00;;;;;;;;4981239;28;28449;-80
2023/06/20 14:32:35;;;;;;;;;3.50;3.50;;;;;;;;4980692;28;28500;-83
2023/06/20 14:35:00;;;;;;;;;4.25;4.25;;;;;;;;4994289;28;28503;-82
2023/06/20 14:37:25;;;;;;;;;5.00;4.00;;;;;;;;4992636;28;29545;-77